sensor_id;sensor_type;location;lat;lon;timestamp;P1;durP1;ratioP1;P2;durP2;ratioP2
53927;SDS011;39837;47.630;18.822;2024-02-04T00:01:02;3.67;;;3.42;;
53927;SDS011;39837;47.630;18.822;2024-02-04T00:03:46;2.65;;;2.50;;
53927;SDS011;39837;47.630;18.822;2024-02-04T00:06:30;3.15;;;3.05;;
53927;SDS011;39837;47.630;18.822;2024-02-04T00:09:15;3.47;;;3.17;;
53927;SDS011;39837;47.630;18.822;2024-02-04T00:11:58;2.70;;;2.50;;
53927;SDS011;39837;47.630;18.822;2024-02-04T00:14:46;3.03;;;2.83;;
53927;SDS011;39837;47.630;18.822;2024-02-04T00:17:33;5.70;;;3.08;;
53927;SDS011;39837;47.630;18.822;2024-02-04T00:20:17;2.88;;;2.65;;
53927;SDS011;39837;47.630;18.822;2024-02-04T00:23:01;3.38;;;2.58;;
53927;SDS011;39837;47.630;18.822;2024-02-04T00:25:46;2.67;;;2.58;;
53927;SDS011;39837;47.630;18.822;2024-02-04T00:28:30;2.67;;;2.58;;
53927;SDS011;39837;47.630;18.822;2024-02-04T00:31:14;6.25;;;3.13;;
53927;SDS011;39837;47.630;18.822;2024-02-04T00:33:58;2.60;;;2.50;;
53927;SDS011;39837;47.630;18.822;2024-02-04T00:36:42;3.13;;;2.50;;
53927;SDS011;39837;47.630;18.822;2024-02-04T00:39:26;3.15;;;3.03;;
53927;SDS011;39837;47.630;18.822;2024-02-04T00:42:10;3.35;;;2.83;;
53927;SDS011;39837;47.630;18.822;2024-02-04T00:44:54;3.20;;;2.85;;
53927;SDS011;39837;47.630;18.822;2024-02-04T00:47:38;2.90;;;2.80;;
53927;SDS011;39837;47.630;18.822;2024-02-04T00:50:22;3.13;;;2.92;;
53927;SDS011;39837;47.630;18.822;2024-02-04T00:53:07;3.10;;;3.00;;
53927;SDS011;39837;47.630;18.822;2024-02-04T00:55:51;2.72;;;2.63;;
53927;SDS011;39837;47.630;18.822;2024-02-04T00:58:35;3.15;;;2.95;;
53927;SDS011;39837;47.630;18.822;2024-02-04T01:01:19;2.85;;;2.72;;
53927;SDS011;39837;47.630;18.822;2024-02-04T01:04:04;3.08;;;2.88;;
53927;SDS011;39837;47.630;18.822;2024-02-04T01:06:48;2.83;;;2.72;;
53927;SDS011;39837;47.630;18.822;2024-02-04T01:09:32;3.08;;;2.90;;
53927;SDS011;39837;47.630;18.822;2024-02-04T01:12:16;3.22;;;2.85;;
53927;SDS011;39837;47.630;18.822;2024-02-04T01:15:00;3.00;;;2.80;;
53927;SDS011;39837;47.630;18.822;2024-02-04T01:17:45;2.95;;;2.85;;
53927;SDS011;39837;47.630;18.822;2024-02-04T01:20:28;3.17;;;2.83;;
53927;SDS011;39837;47.630;18.822;2024-02-04T01:23:12;3.15;;;3.03;;
53927;SDS011;39837;47.630;18.822;2024-02-04T01:25:57;3.47;;;3.28;;
53927;SDS011;39837;47.630;18.822;2024-02-04T01:28:42;3.33;;;3.10;;
53927;SDS011;39837;47.630;18.822;2024-02-04T01:31:26;4.35;;;3.70;;
53927;SDS011;39837;47.630;18.822;2024-02-04T01:34:10;3.67;;;3.38;;
53927;SDS011;39837;47.630;18.822;2024-02-04T01:36:54;3.47;;;3.17;;
53927;SDS011;39837;47.630;18.822;2024-02-04T01:39:38;3.67;;;3.38;;
53927;SDS011;39837;47.630;18.822;2024-02-04T01:42:22;3.42;;;3.22;;
53927;SDS011;39837;47.630;18.822;2024-02-04T01:45:07;3.22;;;3.13;;
53927;SDS011;39837;47.630;18.822;2024-02-04T01:47:51;3.35;;;3.15;;
53927;SDS011;39837;47.630;18.822;2024-02-04T01:50:36;3.78;;;3.53;;
53927;SDS011;39837;47.630;18.822;2024-02-04T01:53:21;4.00;;;3.70;;
53927;SDS011;39837;47.630;18.822;2024-02-04T01:56:06;2.97;;;2.88;;
53927;SDS011;39837;47.630;18.822;2024-02-04T01:58:50;4.10;;;3.67;;
53927;SDS011;39837;47.630;18.822;2024-02-04T02:01:34;3.28;;;3.17;;
53927;SDS011;39837;47.630;18.822;2024-02-04T02:04:18;3.22;;;2.92;;
53927;SDS011;39837;47.630;18.822;2024-02-04T02:07:03;3.30;;;3.10;;
53927;SDS011;39837;47.630;18.822;2024-02-04T02:09:48;3.97;;;3.77;;
53927;SDS011;39837;47.630;18.822;2024-02-04T02:12:36;3.53;;;3.40;;
53927;SDS011;39837;47.630;18.822;2024-02-04T02:15:24;4.45;;;4.07;;
53927;SDS011;39837;47.630;18.822;2024-02-04T02:18:14;4.35;;;3.92;;
53927;SDS011;39837;47.630;18.822;2024-02-04T02:21:16;4.35;;;4.05;;
53927;SDS011;39837;47.630;18.822;2024-02-04T02:24:10;3.53;;;3.28;;
53927;SDS011;39837;47.630;18.822;2024-02-04T02:26:55;4.00;;;3.70;;
53927;SDS011;39837;47.630;18.822;2024-02-04T02:29:42;3.53;;;3.33;;
53927;SDS011;39837;47.630;18.822;2024-02-04T02:32:26;4.43;;;4.13;;
53927;SDS011;39837;47.630;18.822;2024-02-04T02:35:11;5.50;;;3.95;;
53927;SDS011;39837;47.630;18.822;2024-02-04T02:38:04;3.88;;;3.67;;
53927;SDS011;39837;47.630;18.822;2024-02-04T02:40:51;5.55;;;3.95;;
53927;SDS011;39837;47.630;18.822;2024-02-04T02:43:39;4.03;;;3.72;;
53927;SDS011;39837;47.630;18.822;2024-02-04T02:46:24;4.38;;;4.07;;
53927;SDS011;39837;47.630;18.822;2024-02-04T02:49:08;3.95;;;3.65;;
53927;SDS011;39837;47.630;18.822;2024-02-04T02:51:52;3.88;;;3.58;;
53927;SDS011;39837;47.630;18.822;2024-02-04T02:54:36;3.60;;;3.38;;
53927;SDS011;39837;47.630;18.822;2024-02-04T02:57:20;4.07;;;3.83;;
53927;SDS011;39837;47.630;18.822;2024-02-04T03:00:04;4.13;;;3.83;;
53927;SDS011;39837;47.630;18.822;2024-02-04T03:02:49;4.60;;;4.20;;
53927;SDS011;39837;47.630;18.822;2024-02-04T03:05:33;4.72;;;4.40;;
53927;SDS011;39837;47.630;18.822;2024-02-04T03:08:17;6.13;;;4.78;;
53927;SDS011;39837;47.630;18.822;2024-02-04T03:11:01;7.30;;;5.05;;
53927;SDS011;39837;47.630;18.822;2024-02-04T03:13:45;5.40;;;5.00;;
53927;SDS011;39837;47.630;18.822;2024-02-04T03:16:29;5.50;;;5.00;;
53927;SDS011;39837;47.630;18.822;2024-02-04T03:19:13;5.65;;;5.18;;
53927;SDS011;39837;47.630;18.822;2024-02-04T03:21:57;4.55;;;4.25;;
53927;SDS011;39837;47.630;18.822;2024-02-04T03:24:41;5.97;;;5.15;;
53927;SDS011;39837;47.630;18.822;2024-02-04T03:27:25;4.32;;;3.90;;
53927;SDS011;39837;47.630;18.822;2024-02-04T03:30:09;5.10;;;4.80;;
53927;SDS011;39837;47.630;18.822;2024-02-04T03:32:54;5.18;;;4.88;;
53927;SDS011;39837;47.630;18.822;2024-02-04T03:35:38;5.45;;;4.95;;
53927;SDS011;39837;47.630;18.822;2024-02-04T03:38:22;6.53;;;5.93;;
53927;SDS011;39837;47.630;18.822;2024-02-04T03:41:06;6.47;;;5.97;;
53927;SDS011;39837;47.630;18.822;2024-02-04T03:43:50;5.88;;;5.40;;
53927;SDS011;39837;47.630;18.822;2024-02-04T03:46:34;5.50;;;5.03;;
53927;SDS011;39837;47.630;18.822;2024-02-04T03:49:19;5.47;;;5.07;;
53927;SDS011;39837;47.630;18.822;2024-02-04T03:52:04;4.72;;;4.43;;
53927;SDS011;39837;47.630;18.822;2024-02-04T03:54:49;3.78;;;3.47;;
53927;SDS011;39837;47.630;18.822;2024-02-04T03:57:33;10.63;;;4.57;;
53927;SDS011;39837;47.630;18.822;2024-02-04T04:00:17;4.45;;;4.15;;
53927;SDS011;39837;47.630;18.822;2024-02-04T04:03:01;5.10;;;4.68;;
53927;SDS011;39837;47.630;18.822;2024-02-04T04:05:45;4.40;;;4.10;;
53927;SDS011;39837;47.630;18.822;2024-02-04T04:08:29;5.57;;;5.05;;
53927;SDS011;39837;47.630;18.822;2024-02-04T04:11:13;4.78;;;4.43;;
53927;SDS011;39837;47.630;18.822;2024-02-04T04:13:58;5.25;;;4.85;;
53927;SDS011;39837;47.630;18.822;2024-02-04T04:16:42;5.43;;;4.93;;
53927;SDS011;39837;47.630;18.822;2024-02-04T04:19:26;4.93;;;4.53;;
53927;SDS011;39837;47.630;18.822;2024-02-04T04:22:10;6.22;;;5.63;;
53927;SDS011;39837;47.630;18.822;2024-02-04T04:24:54;6.70;;;6.07;;
53927;SDS011;39837;47.630;18.822;2024-02-04T04:27:38;5.85;;;5.30;;
53927;SDS011;39837;47.630;18.822;2024-02-04T04:30:22;7.05;;;5.60;;
53927;SDS011;39837;47.630;18.822;2024-02-04T04:33:07;6.63;;;5.22;;
53927;SDS011;39837;47.630;18.822;2024-02-04T04:35:51;5.60;;;5.18;;
53927;SDS011;39837;47.630;18.822;2024-02-04T04:38:35;4.90;;;4.50;;
53927;SDS011;39837;47.630;18.822;2024-02-04T04:41:19;5.22;;;4.65;;
53927;SDS011;39837;47.630;18.822;2024-02-04T04:44:04;5.22;;;4.75;;
53927;SDS011;39837;47.630;18.822;2024-02-04T04:46:48;5.07;;;4.78;;
53927;SDS011;39837;47.630;18.822;2024-02-04T04:49:32;4.75;;;4.45;;
53927;SDS011;39837;47.630;18.822;2024-02-04T04:52:16;4.78;;;4.07;;
53927;SDS011;39837;47.630;18.822;2024-02-04T04:55:02;4.45;;;4.15;;
53927;SDS011;39837;47.630;18.822;2024-02-04T04:57:46;4.88;;;4.57;;
53927;SDS011;39837;47.630;18.822;2024-02-04T05:00:30;4.60;;;4.35;;
53927;SDS011;39837;47.630;18.822;2024-02-04T05:03:14;4.25;;;4.05;;
53927;SDS011;39837;47.630;18.822;2024-02-04T05:05:59;4.30;;;4.00;;
53927;SDS011;39837;47.630;18.822;2024-02-04T05:08:44;4.65;;;4.30;;
53927;SDS011;39837;47.630;18.822;2024-02-04T05:11:28;5.03;;;4.63;;
53927;SDS011;39837;47.630;18.822;2024-02-04T05:14:13;4.35;;;4.15;;
53927;SDS011;39837;47.630;18.822;2024-02-04T05:16:57;4.57;;;4.28;;
53927;SDS011;39837;47.630;18.822;2024-02-04T05:19:41;4.68;;;4.38;;
53927;SDS011;39837;47.630;18.822;2024-02-04T05:22:26;3.58;;;3.38;;
53927;SDS011;39837;47.630;18.822;2024-02-04T05:25:10;4.03;;;3.83;;
53927;SDS011;39837;47.630;18.822;2024-02-04T05:27:54;4.30;;;4.10;;
53927;SDS011;39837;47.630;18.822;2024-02-04T05:30:38;4.28;;;3.97;;
53927;SDS011;39837;47.630;18.822;2024-02-04T05:33:22;4.30;;;4.00;;
53927;SDS011;39837;47.630;18.822;2024-02-04T05:36:06;3.90;;;3.70;;
53927;SDS011;39837;47.630;18.822;2024-02-04T05:38:50;4.30;;;4.00;;
53927;SDS011;39837;47.630;18.822;2024-02-04T05:41:35;4.00;;;3.72;;
53927;SDS011;39837;47.630;18.822;2024-02-04T05:44:19;3.92;;;3.70;;
53927;SDS011;39837;47.630;18.822;2024-02-04T05:47:03;3.90;;;3.53;;
53927;SDS011;39837;47.630;18.822;2024-02-04T05:49:48;3.60;;;3.40;;
53927;SDS011;39837;47.630;18.822;2024-02-04T05:52:32;3.97;;;3.67;;
53927;SDS011;39837;47.630;18.822;2024-02-04T05:55:16;4.03;;;3.58;;
53927;SDS011;39837;47.630;18.822;2024-02-04T05:58:00;3.78;;;3.58;;
53927;SDS011;39837;47.630;18.822;2024-02-04T06:00:44;3.65;;;3.40;;
53927;SDS011;39837;47.630;18.822;2024-02-04T06:03:28;3.95;;;3.72;;
53927;SDS011;39837;47.630;18.822;2024-02-04T06:06:15;3.30;;;3.15;;
53927;SDS011;39837;47.630;18.822;2024-02-04T06:09:00;4.00;;;3.80;;
53927;SDS011;39837;47.630;18.822;2024-02-04T06:11:44;4.28;;;4.07;;
53927;SDS011;39837;47.630;18.822;2024-02-04T06:14:30;3.95;;;3.75;;
53927;SDS011;39837;47.630;18.822;2024-02-04T06:17:13;3.45;;;3.28;;
53927;SDS011;39837;47.630;18.822;2024-02-04T06:19:57;3.85;;;3.65;;
53927;SDS011;39837;47.630;18.822;2024-02-04T06:22:44;3.72;;;3.53;;
53927;SDS011;39837;47.630;18.822;2024-02-04T06:25:28;4.45;;;4.25;;
53927;SDS011;39837;47.630;18.822;2024-02-04T06:28:12;3.78;;;3.58;;
53927;SDS011;39837;47.630;18.822;2024-02-04T06:30:56;3.55;;;3.35;;
53927;SDS011;39837;47.630;18.822;2024-02-04T06:33:41;3.67;;;3.47;;
53927;SDS011;39837;47.630;18.822;2024-02-04T06:36:25;4.22;;;3.85;;
53927;SDS011;39837;47.630;18.822;2024-02-04T06:39:08;4.45;;;4.15;;
53927;SDS011;39837;47.630;18.822;2024-02-04T06:41:53;14.63;;;6.63;;
53927;SDS011;39837;47.630;18.822;2024-02-04T06:44:37;7.00;;;6.03;;
53927;SDS011;39837;47.630;18.822;2024-02-04T06:47:21;5.00;;;4.38;;
53927;SDS011;39837;47.630;18.822;2024-02-04T06:50:06;4.60;;;4.28;;
53927;SDS011;39837;47.630;18.822;2024-02-04T06:52:50;4.57;;;4.30;;
53927;SDS011;39837;47.630;18.822;2024-02-04T06:55:34;4.40;;;4.07;;
53927;SDS011;39837;47.630;18.822;2024-02-04T06:58:18;5.10;;;4.63;;
53927;SDS011;39837;47.630;18.822;2024-02-04T07:01:03;4.63;;;4.13;;
53927;SDS011;39837;47.630;18.822;2024-02-04T07:03:47;3.80;;;3.60;;
53927;SDS011;39837;47.630;18.822;2024-02-04T07:06:31;3.20;;;3.08;;
53927;SDS011;39837;47.630;18.822;2024-02-04T07:09:15;4.43;;;3.95;;
53927;SDS011;39837;47.630;18.822;2024-02-04T07:11:59;7.43;;;4.75;;
53927;SDS011;39837;47.630;18.822;2024-02-04T07:14:43;3.80;;;3.60;;
53927;SDS011;39837;47.630;18.822;2024-02-04T07:17:28;3.63;;;3.42;;
53927;SDS011;39837;47.630;18.822;2024-02-04T07:20:12;4.47;;;4.18;;
53927;SDS011;39837;47.630;18.822;2024-02-04T07:22:56;3.05;;;2.95;;
53927;SDS011;39837;47.630;18.822;2024-02-04T07:25:40;3.28;;;3.17;;
53927;SDS011;39837;47.630;18.822;2024-02-04T07:28:25;10.85;;;5.90;;
53927;SDS011;39837;47.630;18.822;2024-02-04T07:31:09;5.25;;;4.80;;
53927;SDS011;39837;47.630;18.822;2024-02-04T07:33:54;4.00;;;3.70;;
53927;SDS011;39837;47.630;18.822;2024-02-04T07:36:38;4.05;;;3.75;;
53927;SDS011;39837;47.630;18.822;2024-02-04T07:39:22;4.28;;;3.97;;
53927;SDS011;39837;47.630;18.822;2024-02-04T07:42:06;4.13;;;3.83;;
53927;SDS011;39837;47.630;18.822;2024-02-04T07:44:49;2.90;;;2.80;;
53927;SDS011;39837;47.630;18.822;2024-02-04T07:47:34;3.40;;;3.20;;
53927;SDS011;39837;47.630;18.822;2024-02-04T07:50:18;3.40;;;3.20;;
53927;SDS011;39837;47.630;18.822;2024-02-04T07:53:02;5.45;;;3.92;;
53927;SDS011;39837;47.630;18.822;2024-02-04T07:55:46;3.28;;;3.08;;
53927;SDS011;39837;47.630;18.822;2024-02-04T07:58:30;3.80;;;3.50;;
53927;SDS011;39837;47.630;18.822;2024-02-04T08:01:14;2.97;;;2.88;;
53927;SDS011;39837;47.630;18.822;2024-02-04T08:03:58;4.28;;;3.97;;
53927;SDS011;39837;47.630;18.822;2024-02-04T08:06:43;3.60;;;3.40;;
53927;SDS011;39837;47.630;18.822;2024-02-04T08:09:27;5.57;;;3.53;;
53927;SDS011;39837;47.630;18.822;2024-02-04T08:12:11;3.63;;;3.42;;
53927;SDS011;39837;47.630;18.822;2024-02-04T08:14:55;4.72;;;4.40;;
53927;SDS011;39837;47.630;18.822;2024-02-04T08:17:39;4.10;;;3.70;;
53927;SDS011;39837;47.630;18.822;2024-02-04T08:20:23;7.28;;;5.35;;
53927;SDS011;39837;47.630;18.822;2024-02-04T08:23:08;3.97;;;3.67;;
53927;SDS011;39837;47.630;18.822;2024-02-04T08:25:52;3.83;;;3.42;;
53927;SDS011;39837;47.630;18.822;2024-02-04T08:28:36;5.45;;;2.92;;
53927;SDS011;39837;47.630;18.822;2024-02-04T08:31:20;3.00;;;2.80;;
53927;SDS011;39837;47.630;18.822;2024-02-04T08:34:04;2.78;;;2.67;;
53927;SDS011;39837;47.630;18.822;2024-02-04T08:36:49;2.90;;;2.70;;
53927;SDS011;39837;47.630;18.822;2024-02-04T08:39:33;5.55;;;3.85;;
53927;SDS011;39837;47.630;18.822;2024-02-04T08:42:18;3.78;;;3.47;;
53927;SDS011;39837;47.630;18.822;2024-02-04T08:45:02;2.80;;;2.70;;
53927;SDS011;39837;47.630;18.822;2024-02-04T08:47:46;3.28;;;3.08;;
53927;SDS011;39837;47.630;18.822;2024-02-04T08:50:30;2.92;;;2.83;;
53927;SDS011;39837;47.630;18.822;2024-02-04T08:53:14;4.25;;;3.95;;
53927;SDS011;39837;47.630;18.822;2024-02-04T08:55:58;4.05;;;3.75;;
53927;SDS011;39837;47.630;18.822;2024-02-04T08:58:42;2.85;;;2.65;;
53927;SDS011;39837;47.630;18.822;2024-02-04T09:01:27;3.72;;;3.42;;
53927;SDS011;39837;47.630;18.822;2024-02-04T09:04:11;6.25;;;5.75;;
53927;SDS011;39837;47.630;18.822;2024-02-04T09:06:55;3.20;;;2.90;;
53927;SDS011;39837;47.630;18.822;2024-02-04T09:09:39;3.78;;;3.40;;
53927;SDS011;39837;47.630;18.822;2024-02-04T09:12:24;12.98;;;4.40;;
53927;SDS011;39837;47.630;18.822;2024-02-04T09:15:09;5.25;;;4.75;;
53927;SDS011;39837;47.630;18.822;2024-02-04T09:17:53;4.15;;;3.85;;
53927;SDS011;39837;47.630;18.822;2024-02-04T09:20:37;2.80;;;2.70;;
53927;SDS011;39837;47.630;18.822;2024-02-04T09:23:22;2.80;;;2.67;;
53927;SDS011;39837;47.630;18.822;2024-02-04T09:26:06;3.67;;;3.38;;
53927;SDS011;39837;47.630;18.822;2024-02-04T09:28:50;5.38;;;4.13;;
53927;SDS011;39837;47.630;18.822;2024-02-04T09:31:34;4.63;;;4.22;;
53927;SDS011;39837;47.630;18.822;2024-02-04T09:34:18;2.60;;;1.92;;
53927;SDS011;39837;47.630;18.822;2024-02-04T09:37:02;2.30;;;2.10;;
53927;SDS011;39837;47.630;18.822;2024-02-04T09:39:47;1.83;;;1.75;;
53927;SDS011;39837;47.630;18.822;2024-02-04T09:42:30;4.72;;;1.83;;
53927;SDS011;39837;47.630;18.822;2024-02-04T09:45:15;4.55;;;3.40;;
53927;SDS011;39837;47.630;18.822;2024-02-04T09:47:59;2.28;;;2.05;;
53927;SDS011;39837;47.630;18.822;2024-02-04T09:50:44;3.40;;;3.20;;
53927;SDS011;39837;47.630;18.822;2024-02-04T09:53:33;2.70;;;2.53;;
53927;SDS011;39837;47.630;18.822;2024-02-04T09:56:18;2.97;;;2.20;;
53927;SDS011;39837;47.630;18.822;2024-02-04T09:59:05;2.10;;;2.00;;
53927;SDS011;39837;47.630;18.822;2024-02-04T10:01:50;2.17;;;2.08;;
53927;SDS011;39837;47.630;18.822;2024-02-04T10:04:34;2.10;;;2.00;;
53927;SDS011;39837;47.630;18.822;2024-02-04T10:07:18;2.03;;;1.92;;
53927;SDS011;39837;47.630;18.822;2024-02-04T10:10:03;5.38;;;4.85;;
53927;SDS011;39837;47.630;18.822;2024-02-04T10:12:49;2.78;;;2.10;;
53927;SDS011;39837;47.630;18.822;2024-02-04T10:15:32;1.77;;;1.65;;
53927;SDS011;39837;47.630;18.822;2024-02-04T10:18:17;1.90;;;1.80;;
53927;SDS011;39837;47.630;18.822;2024-02-04T10:21:01;2.10;;;2.00;;
53927;SDS011;39837;47.630;18.822;2024-02-04T10:23:46;3.15;;;1.50;;
53927;SDS011;39837;47.630;18.822;2024-02-04T10:26:33;1.67;;;1.58;;
53927;SDS011;39837;47.630;18.822;2024-02-04T10:29:21;1.70;;;1.60;;
53927;SDS011;39837;47.630;18.822;2024-02-04T10:32:06;7.82;;;2.42;;
53927;SDS011;39837;47.630;18.822;2024-02-04T10:37:36;2.10;;;1.73;;
53927;SDS011;39837;47.630;18.822;2024-02-04T10:40:20;2.20;;;2.00;;
53927;SDS011;39837;47.630;18.822;2024-02-04T10:43:04;5.65;;;2.33;;
53927;SDS011;39837;47.630;18.822;2024-02-04T10:45:52;8.82;;;5.82;;
53927;SDS011;39837;47.630;18.822;2024-02-04T10:48:41;5.57;;;3.80;;
53927;SDS011;39837;47.630;18.822;2024-02-04T10:51:28;8.05;;;4.80;;
53927;SDS011;39837;47.630;18.822;2024-02-04T10:54:15;2.75;;;2.55;;
53927;SDS011;39837;47.630;18.822;2024-02-04T10:57:05;1.45;;;1.45;;
53927;SDS011;39837;47.630;18.822;2024-02-04T10:59:49;3.10;;;2.90;;
53927;SDS011;39837;47.630;18.822;2024-02-04T11:02:35;2.15;;;2.05;;
53927;SDS011;39837;47.630;18.822;2024-02-04T11:05:20;1.50;;;1.50;;
53927;SDS011;39837;47.630;18.822;2024-02-04T11:08:05;1.88;;;1.77;;
53927;SDS011;39837;47.630;18.822;2024-02-04T11:10:49;2.00;;;1.95;;
53927;SDS011;39837;47.630;18.822;2024-02-04T11:13:33;6.18;;;2.03;;
53927;SDS011;39837;47.630;18.822;2024-02-04T11:26:04;6.28;;;4.60;;
53927;SDS011;39837;47.630;18.822;2024-02-04T11:28:49;7.63;;;3.17;;
53927;SDS011;39837;47.630;18.822;2024-02-04T11:31:33;1.48;;;1.38;;
53927;SDS011;39837;47.630;18.822;2024-02-04T11:34:17;1.27;;;1.27;;
53927;SDS011;39837;47.630;18.822;2024-02-04T11:37:01;1.10;;;1.10;;
53927;SDS011;39837;47.630;18.822;2024-02-04T11:39:49;7.50;;;1.67;;
53927;SDS011;39837;47.630;18.822;2024-02-04T11:42:34;3.28;;;1.38;;
53927;SDS011;39837;47.630;18.822;2024-02-04T11:45:18;10.90;;;1.60;;
53927;SDS011;39837;47.630;18.822;2024-02-04T11:48:02;1.98;;;1.70;;
53927;SDS011;39837;47.630;18.822;2024-02-04T11:50:53;1.50;;;1.40;;
53927;SDS011;39837;47.630;18.822;2024-02-04T11:53:38;9.40;;;3.10;;
53927;SDS011;39837;47.630;18.822;2024-02-04T11:56:23;2.97;;;1.77;;
53927;SDS011;39837;47.630;18.822;2024-02-04T12:01:55;2.67;;;1.60;;
53927;SDS011;39837;47.630;18.822;2024-02-04T12:04:39;1.42;;;1.42;;
53927;SDS011;39837;47.630;18.822;2024-02-04T12:07:23;1.80;;;1.70;;
53927;SDS011;39837;47.630;18.822;2024-02-04T12:10:07;2.53;;;1.70;;
53927;SDS011;39837;47.630;18.822;2024-02-04T12:12:52;1.23;;;1.23;;
53927;SDS011;39837;47.630;18.822;2024-02-04T12:15:36;1.30;;;1.30;;
53927;SDS011;39837;47.630;18.822;2024-02-04T12:18:21;1.83;;;1.73;;
53927;SDS011;39837;47.630;18.822;2024-02-04T12:21:04;4.13;;;2.85;;
53927;SDS011;39837;47.630;18.822;2024-02-04T12:23:49;1.90;;;1.75;;
53927;SDS011;39837;47.630;18.822;2024-02-04T12:26:33;1.95;;;1.85;;
53927;SDS011;39837;47.630;18.822;2024-02-04T12:29:17;2.25;;;2.08;;
53927;SDS011;39837;47.630;18.822;2024-02-04T12:32:02;1.58;;;1.58;;
53927;SDS011;39837;47.630;18.822;2024-02-04T12:34:47;1.52;;;1.50;;
53927;SDS011;39837;47.630;18.822;2024-02-04T12:37:31;2.92;;;2.75;;
53927;SDS011;39837;47.630;18.822;2024-02-04T12:40:21;3.20;;;3.00;;
53927;SDS011;39837;47.630;18.822;2024-02-04T12:43:06;1.63;;;1.50;;
53927;SDS011;39837;47.630;18.822;2024-02-04T12:45:55;2.22;;;1.60;;
53927;SDS011;39837;47.630;18.822;2024-02-04T12:48:40;9.57;;;1.30;;
53927;SDS011;39837;47.630;18.822;2024-02-04T12:51:24;1.25;;;1.25;;
53927;SDS011;39837;47.630;18.822;2024-02-04T12:54:12;3.92;;;2.40;;
53927;SDS011;39837;47.630;18.822;2024-02-04T12:56:59;6.53;;;3.15;;
53927;SDS011;39837;47.630;18.822;2024-02-04T12:59:43;4.10;;;3.38;;
53927;SDS011;39837;47.630;18.822;2024-02-04T13:02:27;5.35;;;2.08;;
53927;SDS011;39837;47.630;18.822;2024-02-04T13:05:21;1.30;;;1.30;;
53927;SDS011;39837;47.630;18.822;2024-02-04T13:08:06;4.78;;;1.75;;
53927;SDS011;39837;47.630;18.822;2024-02-04T13:10:54;1.43;;;1.43;;
53927;SDS011;39837;47.630;18.822;2024-02-04T13:13:41;3.05;;;1.92;;
53927;SDS011;39837;47.630;18.822;2024-02-04T13:16:26;11.70;;;5.70;;
53927;SDS011;39837;47.630;18.822;2024-02-04T13:19:10;2.20;;;1.58;;
53927;SDS011;39837;47.630;18.822;2024-02-04T13:21:54;2.90;;;2.65;;
53927;SDS011;39837;47.630;18.822;2024-02-04T13:24:38;2.05;;;1.92;;
53927;SDS011;39837;47.630;18.822;2024-02-04T13:27:23;2.13;;;1.90;;
53927;SDS011;39837;47.630;18.822;2024-02-04T13:30:07;3.95;;;2.35;;
53927;SDS011;39837;47.630;18.822;2024-02-04T13:32:56;1.60;;;1.50;;
53927;SDS011;39837;47.630;18.822;2024-02-04T13:35:41;1.10;;;1.10;;
53927;SDS011;39837;47.630;18.822;2024-02-04T13:38:25;2.20;;;1.98;;
53927;SDS011;39837;47.630;18.822;2024-02-04T13:41:09;1.65;;;1.60;;
53927;SDS011;39837;47.630;18.822;2024-02-04T13:43:53;2.47;;;1.83;;
53927;SDS011;39837;47.630;18.822;2024-02-04T13:46:38;7.38;;;2.42;;
53927;SDS011;39837;47.630;18.822;2024-02-04T13:49:26;2.10;;;1.90;;
53927;SDS011;39837;47.630;18.822;2024-02-04T13:52:10;3.13;;;1.98;;
53927;SDS011;39837;47.630;18.822;2024-02-04T13:54:55;4.30;;;1.85;;
53927;SDS011;39837;47.630;18.822;2024-02-04T13:57:39;1.55;;;1.50;;
53927;SDS011;39837;47.630;18.822;2024-02-04T14:00:24;3.72;;;1.40;;
53927;SDS011;39837;47.630;18.822;2024-02-04T14:03:08;2.70;;;2.22;;
53927;SDS011;39837;47.630;18.822;2024-02-04T14:05:52;2.33;;;1.60;;
53927;SDS011;39837;47.630;18.822;2024-02-04T14:08:38;4.50;;;3.20;;
53927;SDS011;39837;47.630;18.822;2024-02-04T14:11:22;12.75;;;5.30;;
53927;SDS011;39837;47.630;18.822;2024-02-04T14:14:06;2.45;;;2.35;;
53927;SDS011;39837;47.630;18.822;2024-02-04T14:16:50;4.85;;;2.33;;
53927;SDS011;39837;47.630;18.822;2024-02-04T14:19:34;12.90;;;7.70;;
53927;SDS011;39837;47.630;18.822;2024-02-04T14:22:19;5.03;;;3.33;;
53927;SDS011;39837;47.630;18.822;2024-02-04T14:25:04;19.95;;;7.88;;
53927;SDS011;39837;47.630;18.822;2024-02-04T14:27:49;26.65;;;11.85;;
53927;SDS011;39837;47.630;18.822;2024-02-04T14:30:34;11.13;;;6.33;;
53927;SDS011;39837;47.630;18.822;2024-02-04T14:33:19;7.57;;;4.53;;
53927;SDS011;39837;47.630;18.822;2024-02-04T14:36:03;3.50;;;2.50;;
53927;SDS011;39837;47.630;18.822;2024-02-04T14:38:48;2.38;;;2.17;;
53927;SDS011;39837;47.630;18.822;2024-02-04T14:41:34;5.30;;;3.40;;
53927;SDS011;39837;47.630;18.822;2024-02-04T14:44:20;6.90;;;3.42;;
53927;SDS011;39837;47.630;18.822;2024-02-04T14:47:04;1.60;;;1.58;;
53927;SDS011;39837;47.630;18.822;2024-02-04T14:49:48;3.92;;;2.92;;
53927;SDS011;39837;47.630;18.822;2024-02-04T14:52:32;10.25;;;4.25;;
53927;SDS011;39837;47.630;18.822;2024-02-04T14:55:16;2.78;;;2.58;;
53927;SDS011;39837;47.630;18.822;2024-02-04T14:58:00;7.10;;;4.63;;
53927;SDS011;39837;47.630;18.822;2024-02-04T15:00:44;6.05;;;4.57;;
53927;SDS011;39837;47.630;18.822;2024-02-04T15:03:28;2.63;;;2.35;;
53927;SDS011;39837;47.630;18.822;2024-02-04T15:06:12;3.28;;;2.53;;
53927;SDS011;39837;47.630;18.822;2024-02-04T15:08:56;2.55;;;2.35;;
53927;SDS011;39837;47.630;18.822;2024-02-04T15:11:42;4.13;;;3.78;;
53927;SDS011;39837;47.630;18.822;2024-02-04T15:14:27;12.70;;;6.20;;
53927;SDS011;39837;47.630;18.822;2024-02-04T15:17:11;2.83;;;2.63;;
53927;SDS011;39837;47.630;18.822;2024-02-04T15:19:56;14.77;;;7.85;;
53927;SDS011;39837;47.630;18.822;2024-02-04T15:22:40;7.45;;;4.75;;
53927;SDS011;39837;47.630;18.822;2024-02-04T15:25:25;4.45;;;3.83;;
53927;SDS011;39837;47.630;18.822;2024-02-04T15:28:10;8.52;;;4.00;;
53927;SDS011;39837;47.630;18.822;2024-02-04T15:30:56;18.30;;;9.07;;
53927;SDS011;39837;47.630;18.822;2024-02-04T15:33:40;3.25;;;3.00;;
53927;SDS011;39837;47.630;18.822;2024-02-04T15:36:25;8.98;;;6.82;;
53927;SDS011;39837;47.630;18.822;2024-02-04T15:39:09;6.40;;;5.80;;
53927;SDS011;39837;47.630;18.822;2024-02-04T15:41:55;3.50;;;3.20;;
53927;SDS011;39837;47.630;18.822;2024-02-04T15:44:39;6.18;;;3.95;;
53927;SDS011;39837;47.630;18.822;2024-02-04T15:47:23;8.38;;;6.05;;
53927;SDS011;39837;47.630;18.822;2024-02-04T15:52:54;8.38;;;6.28;;
53927;SDS011;39837;47.630;18.822;2024-02-04T15:55:38;2.40;;;2.13;;
53927;SDS011;39837;47.630;18.822;2024-02-04T15:58:22;5.10;;;2.22;;
53927;SDS011;39837;47.630;18.822;2024-02-04T16:01:10;2.28;;;2.17;;
53927;SDS011;39837;47.630;18.822;2024-02-04T16:03:55;1.60;;;1.60;;
53927;SDS011;39837;47.630;18.822;2024-02-04T16:06:40;1.42;;;1.42;;
53927;SDS011;39837;47.630;18.822;2024-02-04T16:09:24;1.80;;;1.80;;
53927;SDS011;39837;47.630;18.822;2024-02-04T16:12:09;2.08;;;1.98;;
53927;SDS011;39837;47.630;18.822;2024-02-04T16:14:59;2.22;;;2.13;;
53927;SDS011;39837;47.630;18.822;2024-02-04T16:17:43;2.05;;;1.70;;
53927;SDS011;39837;47.630;18.822;2024-02-04T16:20:28;2.22;;;1.98;;
53927;SDS011;39837;47.630;18.822;2024-02-04T16:23:12;1.70;;;1.70;;
53927;SDS011;39837;47.630;18.822;2024-02-04T16:25:57;1.92;;;1.83;;
53927;SDS011;39837;47.630;18.822;2024-02-04T16:28:42;2.00;;;1.90;;
53927;SDS011;39837;47.630;18.822;2024-02-04T16:31:26;2.55;;;1.95;;
53927;SDS011;39837;47.630;18.822;2024-02-04T16:34:10;2.08;;;1.98;;